sensor_id;sensor_type;location;lat;lon;timestamp;P1;durP1;ratioP1;P2;durP2;ratioP2
13611;SDS011;6877;51.436;6.774;2023-03-16T00:01:29;4.55;;;3.20;;
13611;SDS011;6877;51.436;6.774;2023-03-16T00:03:55;6.55;;;3.10;;
13611;SDS011;6877;51.436;6.774;2023-03-16T00:06:22;6.05;;;3.42;;
13611;SDS011;6877;51.436;6.774;2023-03-16T00:08:53;5.43;;;3.13;;
13611;SDS011;6877;51.436;6.774;2023-03-16T00:11:27;4.72;;;3.17;;
13611;SDS011;6877;51.436;6.774;2023-03-16T00:13:58;14.65;;;4.03;;
13611;SDS011;6877;51.436;6.774;2023-03-16T00:16:29;4.05;;;3.15;;
13611;SDS011;6877;51.436;6.774;2023-03-16T00:18:56;5.07;;;3.38;;
13611;SDS011;6877;51.436;6.774;2023-03-16T00:21:24;5.05;;;3.13;;
13611;SDS011;6877;51.436;6.774;2023-03-16T00:23:50;5.07;;;3.28;;
13611;SDS011;6877;51.436;6.774;2023-03-16T00:26:23;7.40;;;3.50;;
13611;SDS011;6877;51.436;6.774;2023-03-16T00:28:50;8.70;;;3.95;;
13611;SDS011;6877;51.436;6.774;2023-03-16T00:31:24;9.55;;;3.40;;
13611;SDS011;6877;51.436;6.774;2023-03-16T00:33:50;7.15;;;4.00;;
13611;SDS011;6877;51.436;6.774;2023-03-16T00:36:22;9.77;;;4.57;;
13611;SDS011;6877;51.436;6.774;2023-03-16T00:38:53;4.20;;;3.05;;
13611;SDS011;6877;51.436;6.774;2023-03-16T00:41:24;5.78;;;3.40;;
13611;SDS011;6877;51.436;6.774;2023-03-16T00:43:56;6.50;;;3.90;;
13611;SDS011;6877;51.436;6.774;2023-03-16T00:46:27;7.55;;;3.90;;
13611;SDS011;6877;51.436;6.774;2023-03-16T00:48:53;5.68;;;3.10;;
13611;SDS011;6877;51.436;6.774;2023-03-16T00:51:25;6.85;;;3.38;;
13611;SDS011;6877;51.436;6.774;2023-03-16T00:53:56;10.35;;;3.40;;
13611;SDS011;6877;51.436;6.774;2023-03-16T00:56:27;7.72;;;3.30;;
13611;SDS011;6877;51.436;6.774;2023-03-16T00:58:54;5.95;;;3.70;;
13611;SDS011;6877;51.436;6.774;2023-03-16T01:01:27;7.20;;;3.53;;
13611;SDS011;6877;51.436;6.774;2023-03-16T01:03:54;5.55;;;4.00;;
13611;SDS011;6877;51.436;6.774;2023-03-16T01:06:20;6.07;;;3.63;;
13611;SDS011;6877;51.436;6.774;2023-03-16T01:08:47;6.20;;;3.08;;
13611;SDS011;6877;51.436;6.774;2023-03-16T01:11:19;11.02;;;3.85;;
13611;SDS011;6877;51.436;6.774;2023-03-16T01:13:52;6.70;;;3.72;;
13611;SDS011;6877;51.436;6.774;2023-03-16T01:16:24;6.25;;;3.20;;
13611;SDS011;6877;51.436;6.774;2023-03-16T01:18:51;4.05;;;2.85;;
13611;SDS011;6877;51.436;6.774;2023-03-16T01:21:17;6.38;;;3.47;;
13611;SDS011;6877;51.436;6.774;2023-03-16T01:23:51;6.05;;;3.53;;
13611;SDS011;6877;51.436;6.774;2023-03-16T01:26:23;5.25;;;3.15;;
13611;SDS011;6877;51.436;6.774;2023-03-16T01:28:55;8.73;;;3.25;;
13611;SDS011;6877;51.436;6.774;2023-03-16T01:31:26;9.15;;;3.50;;
13611;SDS011;6877;51.436;6.774;2023-03-16T01:33:59;5.38;;;3.40;;
13611;SDS011;6877;51.436;6.774;2023-03-16T01:36:34;7.93;;;4.10;;
13611;SDS011;6877;51.436;6.774;2023-03-16T01:39:05;5.55;;;3.30;;
13611;SDS011;6877;51.436;6.774;2023-03-16T01:41:37;5.20;;;3.67;;
13611;SDS011;6877;51.436;6.774;2023-03-16T01:44:12;5.32;;;2.90;;
13611;SDS011;6877;51.436;6.774;2023-03-16T01:46:41;6.10;;;3.20;;
13611;SDS011;6877;51.436;6.774;2023-03-16T01:49:10;7.40;;;3.38;;
13611;SDS011;6877;51.436;6.774;2023-03-16T01:51:49;5.55;;;3.38;;
13611;SDS011;6877;51.436;6.774;2023-03-16T01:57:12;5.32;;;3.20;;
13611;SDS011;6877;51.436;6.774;2023-03-16T01:59:54;8.30;;;2.90;;
13611;SDS011;6877;51.436;6.774;2023-03-16T02:02:29;6.22;;;3.15;;
13611;SDS011;6877;51.436;6.774;2023-03-16T02:04:58;7.55;;;3.40;;
13611;SDS011;6877;51.436;6.774;2023-03-16T02:07:31;8.50;;;4.30;;
13611;SDS011;6877;51.436;6.774;2023-03-16T02:10:05;3.85;;;3.10;;
13611;SDS011;6877;51.436;6.774;2023-03-16T02:12:37;6.55;;;3.22;;
13611;SDS011;6877;51.436;6.774;2023-03-16T02:15:09;6.85;;;3.08;;
13611;SDS011;6877;51.436;6.774;2023-03-16T02:17:42;6.68;;;3.25;;
13611;SDS011;6877;51.436;6.774;2023-03-16T02:23:09;5.25;;;3.50;;
13611;SDS011;6877;51.436;6.774;2023-03-16T02:28:35;4.88;;;2.90;;
13611;SDS011;6877;51.436;6.774;2023-03-16T02:31:18;4.07;;;2.65;;
13611;SDS011;6877;51.436;6.774;2023-03-16T02:33:47;7.30;;;3.15;;
13611;SDS011;6877;51.436;6.774;2023-03-16T02:36:20;5.95;;;3.20;;
13611;SDS011;6877;51.436;6.774;2023-03-16T02:38:52;4.00;;;2.92;;
13611;SDS011;6877;51.436;6.774;2023-03-16T02:41:23;6.15;;;3.00;;
13611;SDS011;6877;51.436;6.774;2023-03-16T02:44:00;4.85;;;2.70;;
13611;SDS011;6877;51.436;6.774;2023-03-16T02:46:34;5.20;;;2.85;;
13611;SDS011;6877;51.436;6.774;2023-03-16T02:51:54;5.50;;;2.97;;
13611;SDS011;6877;51.436;6.774;2023-03-16T02:54:27;5.25;;;3.08;;
13611;SDS011;6877;51.436;6.774;2023-03-16T02:56:58;5.72;;;3.28;;
13611;SDS011;6877;51.436;6.774;2023-03-16T02:59:25;5.28;;;3.22;;
13611;SDS011;6877;51.436;6.774;2023-03-16T03:01:56;5.45;;;2.85;;
13611;SDS011;6877;51.436;6.774;2023-03-16T03:04:28;8.32;;;3.47;;
13611;SDS011;6877;51.436;6.774;2023-03-16T03:06:54;3.40;;;2.75;;
13611;SDS011;6877;51.436;6.774;2023-03-16T03:09:20;10.38;;;4.38;;
13611;SDS011;6877;51.436;6.774;2023-03-16T03:11:47;7.18;;;3.70;;
13611;SDS011;6877;51.436;6.774;2023-03-16T03:14:13;6.53;;;3.42;;
13611;SDS011;6877;51.436;6.774;2023-03-16T03:16:46;20.23;;;7.85;;
13611;SDS011;6877;51.436;6.774;2023-03-16T03:19:18;6.32;;;3.28;;
13611;SDS011;6877;51.436;6.774;2023-03-16T03:21:44;6.88;;;3.72;;
13611;SDS011;6877;51.436;6.774;2023-03-16T03:24:15;4.68;;;3.42;;
13611;SDS011;6877;51.436;6.774;2023-03-16T03:26:43;6.65;;;3.22;;
13611;SDS011;6877;51.436;6.774;2023-03-16T03:29:09;5.07;;;3.22;;
13611;SDS011;6877;51.436;6.774;2023-03-16T03:31:41;5.15;;;3.65;;
13611;SDS011;6877;51.436;6.774;2023-03-16T03:34:13;5.30;;;3.58;;
13611;SDS011;6877;51.436;6.774;2023-03-16T03:36:40;3.42;;;3.08;;
13611;SDS011;6877;51.436;6.774;2023-03-16T03:39:06;3.58;;;2.80;;
13611;SDS011;6877;51.436;6.774;2023-03-16T03:41:38;4.50;;;2.83;;
13611;SDS011;6877;51.436;6.774;2023-03-16T03:44:04;3.83;;;2.67;;
13611;SDS011;6877;51.436;6.774;2023-03-16T03:46:35;4.97;;;2.97;;
13611;SDS011;6877;51.436;6.774;2023-03-16T03:49:02;4.78;;;3.05;;
13611;SDS011;6877;51.436;6.774;2023-03-16T03:51:35;9.38;;;2.65;;
13611;SDS011;6877;51.436;6.774;2023-03-16T03:54:06;5.32;;;3.20;;
13611;SDS011;6877;51.436;6.774;2023-03-16T03:56:38;6.95;;;2.97;;
13611;SDS011;6877;51.436;6.774;2023-03-16T03:59:04;3.85;;;2.97;;
13611;SDS011;6877;51.436;6.774;2023-03-16T04:01:36;4.72;;;3.10;;
13611;SDS011;6877;51.436;6.774;2023-03-16T04:04:02;5.93;;;2.97;;
13611;SDS011;6877;51.436;6.774;2023-03-16T04:06:33;4.45;;;3.40;;
13611;SDS011;6877;51.436;6.774;2023-03-16T04:09:05;5.22;;;3.25;;
13611;SDS011;6877;51.436;6.774;2023-03-16T04:11:36;8.23;;;3.50;;
13611;SDS011;6877;51.436;6.774;2023-03-16T04:14:08;8.35;;;4.15;;
13611;SDS011;6877;51.436;6.774;2023-03-16T04:16:40;4.20;;;3.17;;
13611;SDS011;6877;51.436;6.774;2023-03-16T04:19:14;5.35;;;3.30;;
13611;SDS011;6877;51.436;6.774;2023-03-16T04:21:40;5.75;;;3.30;;
13611;SDS011;6877;51.436;6.774;2023-03-16T04:24:11;5.63;;;3.17;;
13611;SDS011;6877;51.436;6.774;2023-03-16T04:26:45;4.00;;;2.58;;
13611;SDS011;6877;51.436;6.774;2023-03-16T04:29:16;3.10;;;2.70;;
13611;SDS011;6877;51.436;6.774;2023-03-16T04:31:48;5.00;;;3.42;;
13611;SDS011;6877;51.436;6.774;2023-03-16T04:34:14;4.82;;;3.10;;
13611;SDS011;6877;51.436;6.774;2023-03-16T04:36:40;4.38;;;3.45;;
13611;SDS011;6877;51.436;6.774;2023-03-16T04:39:12;6.88;;;3.30;;
13611;SDS011;6877;51.436;6.774;2023-03-16T04:41:44;6.30;;;3.25;;
13611;SDS011;6877;51.436;6.774;2023-03-16T04:44:15;3.92;;;3.00;;
13611;SDS011;6877;51.436;6.774;2023-03-16T04:46:47;4.78;;;3.10;;
13611;SDS011;6877;51.436;6.774;2023-03-16T04:49:13;9.02;;;4.13;;
13611;SDS011;6877;51.436;6.774;2023-03-16T04:51:45;4.35;;;3.40;;
13611;SDS011;6877;51.436;6.774;2023-03-16T04:54:16;4.53;;;3.58;;
13611;SDS011;6877;51.436;6.774;2023-03-16T04:56:42;7.15;;;3.15;;
13611;SDS011;6877;51.436;6.774;2023-03-16T04:59:14;5.55;;;3.53;;
13611;SDS011;6877;51.436;6.774;2023-03-16T05:01:45;6.57;;;3.40;;
13611;SDS011;6877;51.436;6.774;2023-03-16T05:04:16;6.40;;;3.63;;
13611;SDS011;6877;51.436;6.774;2023-03-16T05:06:48;5.68;;;3.40;;
13611;SDS011;6877;51.436;6.774;2023-03-16T05:09:19;4.07;;;3.15;;
13611;SDS011;6877;51.436;6.774;2023-03-16T05:11:51;7.80;;;3.92;;
13611;SDS011;6877;51.436;6.774;2023-03-16T05:14:22;7.68;;;4.18;;
13611;SDS011;6877;51.436;6.774;2023-03-16T05:16:48;4.90;;;3.67;;
13611;SDS011;6877;51.436;6.774;2023-03-16T05:19:15;7.60;;;3.97;;
13611;SDS011;6877;51.436;6.774;2023-03-16T05:21:41;7.38;;;3.75;;
13611;SDS011;6877;51.436;6.774;2023-03-16T05:24:12;4.75;;;3.97;;
13611;SDS011;6877;51.436;6.774;2023-03-16T05:26:39;7.90;;;4.15;;
13611;SDS011;6877;51.436;6.774;2023-03-16T05:29:10;9.93;;;4.47;;
13611;SDS011;6877;51.436;6.774;2023-03-16T05:31:36;6.03;;;3.55;;
13611;SDS011;6877;51.436;6.774;2023-03-16T05:34:08;7.13;;;4.57;;
13611;SDS011;6877;51.436;6.774;2023-03-16T05:36:39;6.40;;;4.38;;
13611;SDS011;6877;51.436;6.774;2023-03-16T05:39:06;7.28;;;4.30;;
13611;SDS011;6877;51.436;6.774;2023-03-16T05:41:38;9.02;;;5.80;;
13611;SDS011;6877;51.436;6.774;2023-03-16T05:44:05;5.82;;;3.90;;
13611;SDS011;6877;51.436;6.774;2023-03-16T05:46:32;6.65;;;4.03;;
13611;SDS011;6877;51.436;6.774;2023-03-16T05:49:03;6.53;;;4.28;;
13611;SDS011;6877;51.436;6.774;2023-03-16T05:51:35;7.20;;;4.13;;
13611;SDS011;6877;51.436;6.774;2023-03-16T05:54:06;9.18;;;4.80;;
13611;SDS011;6877;51.436;6.774;2023-03-16T05:56:33;8.50;;;4.43;;
13611;SDS011;6877;51.436;6.774;2023-03-16T05:59:04;8.23;;;4.45;;
13611;SDS011;6877;51.436;6.774;2023-03-16T06:01:36;6.45;;;4.68;;
13611;SDS011;6877;51.436;6.774;2023-03-16T06:04:07;7.78;;;4.60;;
13611;SDS011;6877;51.436;6.774;2023-03-16T06:06:38;7.32;;;4.72;;
13611;SDS011;6877;51.436;6.774;2023-03-16T06:09:10;7.55;;;4.55;;
13611;SDS011;6877;51.436;6.774;2023-03-16T06:11:36;8.55;;;5.22;;
13611;SDS011;6877;51.436;6.774;2023-03-16T06:14:08;9.50;;;4.95;;
13611;SDS011;6877;51.436;6.774;2023-03-16T06:16:39;13.88;;;5.38;;
13611;SDS011;6877;51.436;6.774;2023-03-16T06:19:10;12.90;;;5.47;;
13611;SDS011;6877;51.436;6.774;2023-03-16T06:21:42;6.63;;;4.35;;
13611;SDS011;6877;51.436;6.774;2023-03-16T06:24:08;7.95;;;4.90;;
13611;SDS011;6877;51.436;6.774;2023-03-16T06:26:39;7.18;;;4.03;;
13611;SDS011;6877;51.436;6.774;2023-03-16T06:29:06;13.38;;;5.38;;
13611;SDS011;6877;51.436;6.774;2023-03-16T06:31:37;8.93;;;4.75;;
13611;SDS011;6877;51.436;6.774;2023-03-16T06:34:04;9.00;;;4.75;;
13611;SDS011;6877;51.436;6.774;2023-03-16T06:36:35;13.20;;;6.35;;
13611;SDS011;6877;51.436;6.774;2023-03-16T06:39:09;8.00;;;4.55;;
13611;SDS011;6877;51.436;6.774;2023-03-16T06:41:41;5.78;;;4.63;;
13611;SDS011;6877;51.436;6.774;2023-03-16T06:44:12;11.50;;;5.22;;
13611;SDS011;6877;51.436;6.774;2023-03-16T06:46:44;8.23;;;5.22;;
13611;SDS011;6877;51.436;6.774;2023-03-16T06:49:15;11.02;;;5.30;;
13611;SDS011;6877;51.436;6.774;2023-03-16T06:51:47;7.43;;;5.07;;
13611;SDS011;6877;51.436;6.774;2023-03-16T06:54:13;13.93;;;5.13;;
13611;SDS011;6877;51.436;6.774;2023-03-16T06:56:39;12.45;;;5.68;;
13611;SDS011;6877;51.436;6.774;2023-03-16T06:59:08;10.95;;;4.63;;
13611;SDS011;6877;51.436;6.774;2023-03-16T07:01:40;12.68;;;5.25;;
13611;SDS011;6877;51.436;6.774;2023-03-16T07:04:12;8.05;;;5.40;;
13611;SDS011;6877;51.436;6.774;2023-03-16T07:06:43;8.38;;;5.07;;
13611;SDS011;6877;51.436;6.774;2023-03-16T07:09:10;13.10;;;4.55;;
13611;SDS011;6877;51.436;6.774;2023-03-16T07:11:42;7.65;;;4.60;;
13611;SDS011;6877;51.436;6.774;2023-03-16T07:14:14;7.35;;;5.05;;
13611;SDS011;6877;51.436;6.774;2023-03-16T07:16:46;11.63;;;5.13;;
13611;SDS011;6877;51.436;6.774;2023-03-16T07:19:13;10.40;;;4.35;;
13611;SDS011;6877;51.436;6.774;2023-03-16T07:21:44;9.05;;;5.47;;
13611;SDS011;6877;51.436;6.774;2023-03-16T07:24:10;8.77;;;4.20;;
13611;SDS011;6877;51.436;6.774;2023-03-16T07:26:37;9.70;;;4.57;;
13611;SDS011;6877;51.436;6.774;2023-03-16T07:29:04;7.97;;;4.72;;
13611;SDS011;6877;51.436;6.774;2023-03-16T07:31:31;13.18;;;5.60;;
13611;SDS011;6877;51.436;6.774;2023-03-16T07:33:59;6.68;;;4.55;;
13611;SDS011;6877;51.436;6.774;2023-03-16T07:36:27;6.05;;;3.75;;
13611;SDS011;6877;51.436;6.774;2023-03-16T07:38:59;10.02;;;4.65;;
13611;SDS011;6877;51.436;6.774;2023-03-16T07:41:31;9.40;;;4.75;;
13611;SDS011;6877;51.436;6.774;2023-03-16T07:43:57;6.35;;;4.15;;
13611;SDS011;6877;51.436;6.774;2023-03-16T07:46:28;6.88;;;4.25;;
13611;SDS011;6877;51.436;6.774;2023-03-16T07:49:00;5.93;;;4.13;;
13611;SDS011;6877;51.436;6.774;2023-03-16T07:51:31;8.65;;;4.07;;
13611;SDS011;6877;51.436;6.774;2023-03-16T07:53:58;6.95;;;4.65;;
13611;SDS011;6877;51.436;6.774;2023-03-16T07:56:24;6.78;;;4.53;;
13611;SDS011;6877;51.436;6.774;2023-03-16T07:58:51;17.65;;;8.18;;
13611;SDS011;6877;51.436;6.774;2023-03-16T08:01:22;8.02;;;4.70;;
13611;SDS011;6877;51.436;6.774;2023-03-16T08:03:54;7.70;;;4.60;;
13611;SDS011;6877;51.436;6.774;2023-03-16T08:06:26;5.75;;;3.90;;
13611;SDS011;6877;51.436;6.774;2023-03-16T08:08:58;7.00;;;4.32;;
13611;SDS011;6877;51.436;6.774;2023-03-16T08:11:25;8.20;;;4.22;;
13611;SDS011;6877;51.436;6.774;2023-03-16T08:13:52;7.13;;;4.90;;
13611;SDS011;6877;51.436;6.774;2023-03-16T08:16:24;9.57;;;4.93;;
13611;SDS011;6877;51.436;6.774;2023-03-16T08:18:54;10.70;;;4.70;;
13611;SDS011;6877;51.436;6.774;2023-03-16T08:21:22;6.95;;;4.55;;
13611;SDS011;6877;51.436;6.774;2023-03-16T08:23:48;8.60;;;4.63;;
13611;SDS011;6877;51.436;6.774;2023-03-16T08:26:20;8.48;;;4.72;;
13611;SDS011;6877;51.436;6.774;2023-03-16T08:28:53;6.85;;;5.03;;
13611;SDS011;6877;51.436;6.774;2023-03-16T08:31:25;5.70;;;4.18;;
13611;SDS011;6877;51.436;6.774;2023-03-16T08:36:55;5.60;;;4.20;;
13611;SDS011;6877;51.436;6.774;2023-03-16T08:39:21;6.32;;;4.20;;
13611;SDS011;6877;51.436;6.774;2023-03-16T08:41:53;13.00;;;4.78;;
13611;SDS011;6877;51.436;6.774;2023-03-16T08:44:25;10.63;;;4.53;;
13611;SDS011;6877;51.436;6.774;2023-03-16T08:46:52;14.45;;;5.40;;
13611;SDS011;6877;51.436;6.774;2023-03-16T08:49:24;6.85;;;4.55;;
13611;SDS011;6877;51.436;6.774;2023-03-16T08:51:50;9.10;;;4.50;;
13611;SDS011;6877;51.436;6.774;2023-03-16T08:54:22;8.10;;;4.45;;
13611;SDS011;6877;51.436;6.774;2023-03-16T08:59:42;10.00;;;6.50;;
13611;SDS011;6877;51.436;6.774;2023-03-16T09:02:14;8.43;;;5.07;;
13611;SDS011;6877;51.436;6.774;2023-03-16T09:04:46;12.30;;;5.05;;
13611;SDS011;6877;51.436;6.774;2023-03-16T09:07:12;6.70;;;4.72;;
13611;SDS011;6877;51.436;6.774;2023-03-16T09:09:39;8.13;;;4.90;;
13611;SDS011;6877;51.436;6.774;2023-03-16T09:12:10;8.18;;;4.25;;
13611;SDS011;6877;51.436;6.774;2023-03-16T09:14:42;14.93;;;5.40;;
13611;SDS011;6877;51.436;6.774;2023-03-16T09:17:15;10.68;;;5.82;;
13611;SDS011;6877;51.436;6.774;2023-03-16T09:19:47;9.23;;;5.05;;
13611;SDS011;6877;51.436;6.774;2023-03-16T09:22:14;7.03;;;4.35;;
13611;SDS011;6877;51.436;6.774;2023-03-16T09:24:41;10.43;;;5.85;;
13611;SDS011;6877;51.436;6.774;2023-03-16T09:27:08;10.10;;;5.43;;
13611;SDS011;6877;51.436;6.774;2023-03-16T09:29:40;11.02;;;5.60;;
13611;SDS011;6877;51.436;6.774;2023-03-16T09:32:08;9.48;;;5.35;;
13611;SDS011;6877;51.436;6.774;2023-03-16T09:34:39;12.52;;;4.95;;
13611;SDS011;6877;51.436;6.774;2023-03-16T09:37:11;8.50;;;4.88;;
13611;SDS011;6877;51.436;6.774;2023-03-16T09:39:43;7.70;;;5.15;;
13611;SDS011;6877;51.436;6.774;2023-03-16T09:42:18;7.65;;;5.05;;
13611;SDS011;6877;51.436;6.774;2023-03-16T09:47:56;10.77;;;4.85;;
13611;SDS011;6877;51.436;6.774;2023-03-16T09:50:28;5.97;;;4.57;;
13611;SDS011;6877;51.436;6.774;2023-03-16T09:53:04;10.15;;;5.28;;
13611;SDS011;6877;51.436;6.774;2023-03-16T09:55:39;10.13;;;4.93;;
13611;SDS011;6877;51.436;6.774;2023-03-16T09:58:18;7.07;;;4.95;;
13611;SDS011;6877;51.436;6.774;2023-03-16T10:00:49;9.93;;;4.32;;
13611;SDS011;6877;51.436;6.774;2023-03-16T10:04:21;9.32;;;4.60;;
13611;SDS011;6877;51.436;6.774;2023-03-16T10:06:43;10.98;;;5.15;;
13611;SDS011;6877;51.436;6.774;2023-03-16T10:09:36;6.78;;;4.18;;
13611;SDS011;6877;51.436;6.774;2023-03-16T10:12:10;9.23;;;6.22;;
13611;SDS011;6877;51.436;6.774;2023-03-16T10:14:55;7.38;;;4.22;;
13611;SDS011;6877;51.436;6.774;2023-03-16T10:17:30;7.63;;;4.80;;
13611;SDS011;6877;51.436;6.774;2023-03-16T10:20:19;10.70;;;4.65;;
13611;SDS011;6877;51.436;6.774;2023-03-16T10:22:48;6.72;;;4.25;;
13611;SDS011;6877;51.436;6.774;2023-03-16T10:25:38;7.15;;;4.88;;
13611;SDS011;6877;51.436;6.774;2023-03-16T10:28:14;11.73;;;5.07;;
13611;SDS011;6877;51.436;6.774;2023-03-16T10:30:48;8.13;;;4.13;;
13611;SDS011;6877;51.436;6.774;2023-03-16T10:38:56;7.93;;;4.88;;
13611;SDS011;6877;51.436;6.774;2023-03-16T10:41:31;10.23;;;4.05;;
13611;SDS011;6877;51.436;6.774;2023-03-16T10:44:11;7.55;;;3.85;;
13611;SDS011;6877;51.436;6.774;2023-03-16T10:49:38;8.00;;;4.35;;
13611;SDS011;6877;51.436;6.774;2023-03-16T10:52:14;7.00;;;4.10;;
13611;SDS011;6877;51.436;6.774;2023-03-16T10:54:46;5.88;;;3.70;;
13611;SDS011;6877;51.436;6.774;2023-03-16T10:59:53;10.20;;;4.30;;
13611;SDS011;6877;51.436;6.774;2023-03-16T11:02:31;7.15;;;4.20;;
13611;SDS011;6877;51.436;6.774;2023-03-16T11:10:41;6.90;;;4.50;;
13611;SDS011;6877;51.436;6.774;2023-03-16T11:13:12;7.78;;;4.28;;
13611;SDS011;6877;51.436;6.774;2023-03-16T11:15:51;10.13;;;4.45;;
13611;SDS011;6877;51.436;6.774;2023-03-16T11:18:37;10.18;;;4.40;;
13611;SDS011;6877;51.436;6.774;2023-03-16T11:27:15;8.38;;;3.85;;
13611;SDS011;6877;51.436;6.774;2023-03-16T11:32:26;4.95;;;3.35;;
13611;SDS011;6877;51.436;6.774;2023-03-16T11:35:01;7.00;;;3.58;;
13611;SDS011;6877;51.436;6.774;2023-03-16T11:37:48;7.32;;;4.20;;
13611;SDS011;6877;51.436;6.774;2023-03-16T12:14:22;6.43;;;3.88;;
13611;SDS011;6877;51.436;6.774;2023-03-16T12:22:34;4.30;;;3.00;;
13611;SDS011;6877;51.436;6.774;2023-03-16T12:25:10;8.30;;;3.22;;
13611;SDS011;6877;51.436;6.774;2023-03-16T12:27:42;5.75;;;3.67;;
13611;SDS011;6877;51.436;6.774;2023-03-16T12:32:56;5.85;;;3.20;;
13611;SDS011;6877;51.436;6.774;2023-03-16T12:35:44;9.32;;;3.22;;
13611;SDS011;6877;51.436;6.774;2023-03-16T12:38:31;7.65;;;3.83;;
13611;SDS011;6877;51.436;6.774;2023-03-16T12:46:43;5.97;;;3.70;;
13611;SDS011;6877;51.436;6.774;2023-03-16T12:49:23;7.45;;;4.22;;
13611;SDS011;6877;51.436;6.774;2023-03-16T12:51:57;6.22;;;3.45;;
13611;SDS011;6877;51.436;6.774;2023-03-16T12:54:25;7.85;;;3.88;;
13611;SDS011;6877;51.436;6.774;2023-03-16T12:57:04;5.95;;;3.00;;
13611;SDS011;6877;51.436;6.774;2023-03-16T12:59:39;3.95;;;2.75;;
13611;SDS011;6877;51.436;6.774;2023-03-16T13:04:57;8.50;;;3.05;;
13611;SDS011;6877;51.436;6.774;2023-03-16T13:07:27;4.63;;;3.28;;
13611;SDS011;6877;51.436;6.774;2023-03-16T13:10:08;3.75;;;3.20;;
13611;SDS011;6877;51.436;6.774;2023-03-16T13:12:43;3.35;;;2.70;;
13611;SDS011;6877;51.436;6.774;2023-03-16T13:17:48;6.15;;;3.38;;
13611;SDS011;6877;51.436;6.774;2023-03-16T13:20:33;5.53;;;3.00;;
13611;SDS011;6877;51.436;6.774;2023-03-16T13:28:35;4.68;;;2.95;;
13611;SDS011;6877;51.436;6.774;2023-03-16T13:31:19;10.43;;;3.00;;
13611;SDS011;6877;51.436;6.774;2023-03-16T13:34:01;6.03;;;3.40;;
13611;SDS011;6877;51.436;6.774;2023-03-16T13:36:28;3.55;;;3.15;;
13611;SDS011;6877;51.436;6.774;2023-03-16T13:39:12;5.30;;;2.67;;
13611;SDS011;6877;51.436;6.774;2023-03-16T13:41:54;2.97;;;2.38;;
13611;SDS011;6877;51.436;6.774;2023-03-16T13:44:25;7.50;;;2.78;;
13611;SDS011;6877;51.436;6.774;2023-03-16T13:46:53;6.35;;;2.80;;
13611;SDS011;6877;51.436;6.774;2023-03-16T13:49:24;3.72;;;2.97;;
13611;SDS011;6877;51.436;6.774;2023-03-16T13:51:51;5.13;;;2.90;;
13611;SDS011;6877;51.436;6.774;2023-03-16T13:54:19;6.10;;;2.67;;
13611;SDS011;6877;51.436;6.774;2023-03-16T13:56:59;8.88;;;2.92;;
13611;SDS011;6877;51.436;6.774;2023-03-16T13:59:28;4.53;;;2.72;;
13611;SDS011;6877;51.436;6.774;2023-03-16T14:01:57;3.67;;;2.47;;
13611;SDS011;6877;51.436;6.774;2023-03-16T14:04:31;6.03;;;2.60;;
13611;SDS011;6877;51.436;6.774;2023-03-16T14:07:03;3.33;;;2.50;;
13611;SDS011;6877;51.436;6.774;2023-03-16T14:09:31;8.05;;;3.00;;
13611;SDS011;6877;51.436;6.774;2023-03-16T14:12:05;5.07;;;2.58;;
13611;SDS011;6877;51.436;6.774;2023-03-16T14:14:37;5.55;;;3.25;;
13611;SDS011;6877;51.436;6.774;2023-03-16T14:17:11;3.63;;;2.28;;
13611;SDS011;6877;51.436;6.774;2023-03-16T14:22:24;5.75;;;2.28;;
13611;SDS011;6877;51.436;6.774;2023-03-16T14:24:56;3.58;;;2.60;;
13611;SDS011;6877;51.436;6.774;2023-03-16T14:27:31;4.72;;;2.65;;
13611;SDS011;6877;51.436;6.774;2023-03-16T14:33:00;4.50;;;2.25;;
13611;SDS011;6877;51.436;6.774;2023-03-16T14:35:40;6.40;;;2.47;;
13611;SDS011;6877;51.436;6.774;2023-03-16T14:38:20;2.47;;;2.15;;
13611;SDS011;6877;51.436;6.774;2023-03-16T14:40:53;3.72;;;2.22;;
13611;SDS011;6877;51.436;6.774;2023-03-16T14:43:29;7.00;;;2.47;;
13611;SDS011;6877;51.436;6.774;2023-03-16T14:45:59;4.68;;;2.17;;
13611;SDS011;6877;51.436;6.774;2023-03-16T14:48:30;2.88;;;2.25;;
13611;SDS011;6877;51.436;6.774;2023-03-16T14:51:03;3.03;;;2.05;;
13611;SDS011;6877;51.436;6.774;2023-03-16T14:53:36;3.97;;;2.13;;
13611;SDS011;6877;51.436;6.774;2023-03-16T14:56:09;5.25;;;2.30;;
13611;SDS011;6877;51.436;6.774;2023-03-16T14:58:43;3.55;;;2.17;;
13611;SDS011;6877;51.436;6.774;2023-03-16T15:01:15;8.23;;;2.42;;
13611;SDS011;6877;51.436;6.774;2023-03-16T15:03:48;5.30;;;2.28;;
13611;SDS011;6877;51.436;6.774;2023-03-16T15:06:14;4.32;;;1.83;;
13611;SDS011;6877;51.436;6.774;2023-03-16T15:08:46;3.70;;;1.77;;
13611;SDS011;6877;51.436;6.774;2023-03-16T15:11:18;4.63;;;2.55;;
13611;SDS011;6877;51.436;6.774;2023-03-16T15:13:47;4.25;;;2.88;;
13611;SDS011;6877;51.436;6.774;2023-03-16T15:16:19;2.47;;;2.08;;
13611;SDS011;6877;51.436;6.774;2023-03-16T15:18:54;6.90;;;2.20;;
13611;SDS011;6877;51.436;6.774;2023-03-16T15:21:26;3.40;;;2.35;;
13611;SDS011;6877;51.436;6.774;2023-03-16T15:24:01;3.42;;;2.15;;
13611;SDS011;6877;51.436;6.774;2023-03-16T15:26:28;6.15;;;1.98;;
13611;SDS011;6877;51.436;6.774;2023-03-16T15:28:59;3.60;;;2.00;;
13611;SDS011;6877;51.436;6.774;2023-03-16T15:31:31;2.42;;;2.22;;
13611;SDS011;6877;51.436;6.774;2023-03-16T15:34:02;5.90;;;2.40;;
13611;SDS011;6877;51.436;6.774;2023-03-16T15:36:28;4.93;;;2.60;;
13611;SDS011;6877;51.436;6.774;2023-03-16T15:39:02;3.75;;;2.47;;
13611;SDS011;6877;51.436;6.774;2023-03-16T15:41:35;3.38;;;2.03;;
13611;SDS011;6877;51.436;6.774;2023-03-16T15:44:08;2.78;;;2.20;;
13611;SDS011;6877;51.436;6.774;2023-03-16T15:46:42;5.68;;;2.22;;
13611;SDS011;6877;51.436;6.774;2023-03-16T15:49:09;2.03;;;1.92;;
13611;SDS011;6877;51.436;6.774;2023-03-16T15:51:35;2.28;;;1.95;;
13611;SDS011;6877;51.436;6.774;2023-03-16T15:54:07;3.95;;;2.33;;
13611;SDS011;6877;51.436;6.774;2023-03-16T15:56:40;4.10;;;2.72;;
13611;SDS011;6877;51.436;6.774;2023-03-16T15:59:16;5.82;;;2.10;;
13611;SDS011;6877;51.436;6.774;2023-03-16T16:01:47;2.70;;;2.25;;
13611;SDS011;6877;51.436;6.774;2023-03-16T16:04:20;4.20;;;2.30;;
13611;SDS011;6877;51.436;6.774;2023-03-16T16:06:49;5.93;;;3.03;;
13611;SDS011;6877;51.436;6.774;2023-03-16T16:09:19;5.03;;;2.63;;
13611;SDS011;6877;51.436;6.774;2023-03-16T16:11:46;7.32;;;2.20;;
13611;SDS011;6877;51.436;6.774;2023-03-16T16:14:22;5.72;;;2.42;;
13611;SDS011;6877;51.436;6.774;2023-03-16T16:16:50;5.18;;;2.25;;
13611;SDS011;6877;51.436;6.774;2023-03-16T16:19:16;7.82;;;2.53;;
13611;SDS011;6877;51.436;6.774;2023-03-16T16:21:43;4.05;;;2.63;;
13611;SDS011;6877;51.436;6.774;2023-03-16T16:24:11;4.38;;;1.95;;
13611;SDS011;6877;51.436;6.774;2023-03-16T16:26:43;5.03;;;2.20;;
13611;SDS011;6877;51.436;6.774;2023-03-16T16:29:14;3.30;;;2.08;;
13611;SDS011;6877;51.436;6.774;2023-03-16T16:31:47;3.95;;;2.58;;
13611;SDS011;6877;51.436;6.774;2023-03-16T16:34:20;5.57;;;2.13;;
13611;SDS011;6877;51.436;6.774;2023-03-16T16:36:49;2.70;;;2.25;;
13611;SDS011;6877;51.436;6.774;2023-03-16T16:39:21;4.07;;;2.35;;
13611;SDS011;6877;51.436;6.774;2023-03-16T16:41:51;3.70;;;2.45;;
13611;SDS011;6877;51.436;6.774;2023-03-16T16:44:26;5.35;;;2.60;;
13611;SDS011;6877;51.436;6.774;2023-03-16T16:46:54;2.78;;;2.10;;
13611;SDS011;6877;51.436;6.774;2023-03-16T16:49:26;5.03;;;2.67;;
13611;SDS011;6877;51.436;6.774;2023-03-16T16:52:00;3.17;;;2.13;;
13611;SDS011;6877;51.436;6.774;2023-03-16T16:54:32;4.13;;;2.55;;
13611;SDS011;6877;51.436;6.774;2023-03-16T16:57:04;4.43;;;2.47;;
13611;SDS011;6877;51.436;6.774;2023-03-16T16:59:31;4.30;;;2.72;;
13611;SDS011;6877;51.436;6.774;2023-03-16T17:02:02;7.22;;;3.47;;
13611;SDS011;6877;51.436;6.774;2023-03-16T17:04:46;5.10;;;2.97;;
13611;SDS011;6877;51.436;6.774;2023-03-16T17:07:12;10.90;;;2.60;;
13611;SDS011;6877;51.436;6.774;2023-03-16T17:09:44;6.50;;;2.70;;
13611;SDS011;6877;51.436;6.774;2023-03-16T17:12:19;4.20;;;2.15;;
13611;SDS011;6877;51.436;6.774;2023-03-16T17:14:48;3.53;;;2.45;;
13611;SDS011;6877;51.436;6.774;2023-03-16T17:17:20;5.45;;;2.78;;